Time;durP1;ratioP1;P1;durP2;ratioP2;P2;SDS_P1;SDS_P2;PMS_P1;PMS_P2;Temp;Humidity;BMP_temperature;BMP_pressure;BME280_temperature;BME280_humidity;BME280_pressure;Samples;Min_cycle;Max_cycle;Signal;HPM_P1;HPM_P2
2023/08/11 00:00:50;;;;;;;0.20;0.20;;;18.20;99.90;;;;;;4820155;29;20057;-80
2023/08/11 00:03:16;;;;;;;0.20;0.20;;;18.20;99.90;;;;;;4820076;29;20050;-79
2023/08/11 00:05:42;;;;;;;0.20;0.20;;;18.20;99.90;;;;;;4821543;29;20042;-80
2023/08/11 00:08:08;;;;;;;0.25;0.25;;;18.20;99.90;;;;;;4820590;29;20062;-80
2023/08/11 00:10:34;;;;;;;0.10;0.10;;;18.20;99.90;;;;;;4819576;29;20065;-80
2023/08/11 00:13:01;;;;;;;0.20;0.20;;;18.20;99.90;;;;;;4821535;29;20046;-80
2023/08/11 00:15:31;;;;;;;0.20;0.20;;;18.10;99.90;;;;;;4818569;29;20102;-80
2023/08/11 00:18:00;;;;;;;0.20;0.20;;;18.10;99.90;;;;;;4818702;29;20047;-80
2023/08/11 00:20:30;;;;;;;0.20;0.20;;;18.10;99.90;;;;;;4809857;29;20059;-80
2023/08/11 00:22:56;;;;;;;0.10;0.10;;;18.00;99.90;;;;;;4819195;29;20452;-80
2023/08/11 00:25:22;;;;;;;0.13;0.13;;;18.00;99.90;;;;;;4819139;29;20042;-80
2023/08/11 00:27:48;;;;;;;0.20;0.20;;;18.00;99.90;;;;;;4819206;29;20395;-80
2023/08/11 00:30:14;;;;;;;0.20;0.20;;;17.90;99.90;;;;;;4819793;29;20053;-80
2023/08/11 00:32:40;;;;;;;0.20;0.20;;;17.90;99.90;;;;;;4818730;29;20046;-80
2023/08/11 00:35:07;;;;;;;0.20;0.20;;;17.80;99.90;;;;;;4817826;29;20491;-79
2023/08/11 00:37:33;;;;;;;0.10;0.10;;;17.80;99.90;;;;;;4817873;29;20125;-79
2023/08/11 00:39:59;;;;;;;0.10;0.10;;;17.70;99.90;;;;;;4820563;29;20058;-80
2023/08/11 00:42:25;;;;;;;0.20;0.20;;;17.70;99.90;;;;;;4817289;29;20419;-80
2023/08/11 00:44:51;;;;;;;0.20;0.20;;;17.60;99.90;;;;;;4820965;29;20078;-80
2023/08/11 00:47:17;;;;;;;0.20;0.20;;;17.60;99.90;;;;;;4817093;29;20050;-79
2023/08/11 00:49:43;;;;;;;0.10;0.10;;;17.50;99.90;;;;;;4820045;29;20259;-80
2023/08/11 00:52:11;;;;;;;0.10;0.10;;;17.50;99.90;;;;;;4819567;29;20137;-80
2023/08/11 00:54:39;;;;;;;0.17;0.17;;;17.50;99.90;;;;;;4820702;29;20066;-80
2023/08/11 00:57:04;;;;;;;0.10;0.10;;;17.40;99.90;;;;;;4799487;29;20392;-80
2023/08/11 00:59:30;;;;;;;0.20;0.20;;;17.40;99.90;;;;;;4819566;29;20082;-80
2023/08/11 01:01:56;;;;;;;0.20;0.20;;;17.30;99.90;;;;;;4817852;29;20042;-80
2023/08/11 01:04:22;;;;;;;0.10;0.10;;;17.30;99.90;;;;;;4820463;29;20050;-80
2023/08/11 01:07:07;;;;;;;0.20;0.20;;;17.30;99.90;;;;;;4821777;29;20121;-80
2023/08/11 01:09:36;;;;;;;0.20;0.20;;;17.20;99.90;;;;;;4814952;29;20054;-80
2023/08/11 01:12:26;;;;;;;0.20;0.20;;;17.20;99.90;;;;;;4819980;29;20133;-81
2023/08/11 01:15:16;;;;;;;0.15;0.15;;;17.10;99.90;;;;;;4818408;29;20098;-80
2023/08/11 01:17:44;;;;;;;0.20;0.20;;;17.10;99.90;;;;;;4817308;29;20047;-80
2023/08/11 01:20:11;;;;;;;0.20;0.20;;;17.00;99.90;;;;;;4818523;29;20053;-80
2023/08/11 01:22:44;;;;;;;0.10;0.10;;;17.00;99.90;;;;;;4820583;29;20578;-80
2023/08/11 01:25:13;;;;;;;0.20;0.20;;;17.00;99.90;;;;;;4819200;29;20050;-81
2023/08/11 01:27:44;;;;;;;0.20;0.20;;;16.90;99.90;;;;;;4817706;29;20054;-80
2023/08/11 01:30:11;;;;;;;;;;;16.90;99.90;;;;;;4817853;29;20494;-80
2023/08/11 01:32:38;;;;;;;0.17;0.17;;;16.90;99.90;;;;;;4817364;29;19925;-80
2023/08/11 01:35:05;;;;;;;0.20;0.20;;;16.80;99.90;;;;;;4818005;29;20051;-80
2023/08/11 01:37:31;;;;;;;0.13;0.13;;;16.80;99.90;;;;;;4820572;29;20050;-81
2023/08/11 01:39:57;;;;;;;0.10;0.10;;;16.80;99.90;;;;;;4818901;29;20049;-80
2023/08/11 01:42:24;;;;;;;0.20;0.20;;;16.70;99.90;;;;;;4818733;29;20103;-80
2023/08/11 01:44:51;;;;;;;0.20;0.20;;;16.70;99.90;;;;;;4819336;29;20046;-80
2023/08/11 01:47:18;;;;;;;0.10;0.10;;;16.70;99.90;;;;;;4814529;29;20591;-81
2023/08/11 01:49:44;;;;;;;0.20;0.20;;;16.60;99.90;;;;;;4813755;29;20087;-81
2023/08/11 01:52:10;;;;;;;0.20;0.20;;;16.60;99.90;;;;;;4815525;29;20042;-80
2023/08/11 01:54:36;;;;;;;0.20;0.20;;;16.60;99.90;;;;;;4817110;29;20095;-80
2023/08/11 01:57:02;;;;;;;0.20;0.20;;;16.60;99.90;;;;;;4816456;29;20453;-81
2023/08/11 01:59:29;;;;;;;0.20;0.20;;;16.50;99.90;;;;;;4815714;29;20128;-80
2023/08/11 02:01:54;;;;;;;0.20;0.20;;;16.60;99.90;;;;;;4812063;29;20054;-81
2023/08/11 02:04:20;;;;;;;0.20;0.20;;;16.50;99.90;;;;;;4817822;29;20047;-80
2023/08/11 02:06:46;;;;;;;0.20;0.20;;;16.50;99.90;;;;;;4817686;29;20054;-80
2023/08/11 02:09:12;;;;;;;0.10;0.10;;;16.50;99.90;;;;;;4817767;29;20053;-80
2023/08/11 02:11:39;;;;;;;0.10;0.10;;;16.40;99.90;;;;;;4801890;29;20046;-80
2023/08/11 02:14:05;;;;;;;0.10;0.10;;;16.40;99.90;;;;;;4816760;29;21763;-80
2023/08/11 02:16:31;;;;;;;0.15;0.15;;;16.40;99.90;;;;;;4816332;29;20448;-80
2023/08/11 02:18:58;;;;;;;0.20;0.20;;;16.40;99.90;;;;;;4820480;29;20060;-80
2023/08/11 02:21:26;;;;;;;0.20;0.20;;;16.40;99.90;;;;;;4820477;29;20058;-80
2023/08/11 02:23:52;;;;;;;0.10;0.10;;;16.30;99.90;;;;;;4820024;29;20094;-80
2023/08/11 02:26:17;;;;;;;0.10;0.10;;;16.40;99.90;;;;;;4822132;29;20133;-81
2023/08/11 02:28:43;;;;;;;0.20;0.20;;;16.30;99.90;;;;;;4817060;29;20050;-80
2023/08/11 02:31:09;;;;;;;0.13;0.13;;;16.30;99.90;;;;;;4818907;29;20065;-80
2023/08/11 02:33:35;;;;;;;0.20;0.20;;;16.30;99.90;;;;;;4820278;29;20042;-80
2023/08/11 02:36:01;;;;;;;0.17;0.17;;;16.30;99.90;;;;;;4821049;29;20498;-80
2023/08/11 02:38:27;;;;;;;0.20;0.20;;;16.30;99.90;;;;;;4817692;29;20058;-80
2023/08/11 02:40:52;;;;;;;0.20;0.20;;;16.30;99.90;;;;;;4819580;29;20049;-80
2023/08/11 02:43:18;;;;;;;0.10;0.10;;;16.20;99.90;;;;;;4818999;29;20050;-81
2023/08/11 02:45:44;;;;;;;0.20;0.20;;;16.20;99.90;;;;;;4819594;29;20058;-80
2023/08/11 02:48:09;;;;;;;0.10;0.10;;;16.20;99.90;;;;;;4815918;29;20035;-80
2023/08/11 02:50:35;;;;;;;0.20;0.20;;;16.20;99.90;;;;;;4821967;29;20050;-80
2023/08/11 02:53:01;;;;;;;0.20;0.20;;;16.20;99.90;;;;;;4810385;29;20570;-80
2023/08/11 02:55:27;;;;;;;0.10;0.10;;;16.20;99.90;;;;;;4820906;29;20118;-81
2023/08/11 02:57:52;;;;;;;0.20;0.20;;;16.20;99.90;;;;;;4821465;29;20137;-81
2023/08/11 03:00:18;;;;;;;0.20;0.20;;;16.20;99.90;;;;;;4820221;29;20087;-80
2023/08/11 03:02:47;;;;;;;0.20;0.20;;;16.10;99.90;;;;;;4820714;29;20057;-80
2023/08/11 03:05:14;;;;;;;0.20;0.20;;;16.20;99.90;;;;;;4820326;29;20046;-80
2023/08/11 03:07:41;;;;;;;0.20;0.20;;;16.10;99.90;;;;;;4820976;29;20395;-81
2023/08/11 03:10:09;;;;;;;0.20;0.20;;;16.10;99.90;;;;;;4821452;29;20054;-81
2023/08/11 03:12:35;;;;;;;0.15;0.15;;;16.10;99.90;;;;;;4820848;29;20077;-80
2023/08/11 03:15:05;;;;;;;0.13;0.13;;;16.10;99.90;;;;;;4820765;29;20049;-80
2023/08/11 03:17:31;;;;;;;0.13;0.13;;;16.10;99.90;;;;;;4816102;29;20056;-81
2023/08/11 03:19:56;;;;;;;0.13;0.13;;;16.10;99.90;;;;;;4819736;29;20057;-81
2023/08/11 03:22:22;;;;;;;0.10;0.10;;;16.00;99.90;;;;;;4820217;29;20415;-80
2023/08/11 03:24:48;;;;;;;0.10;0.10;;;16.10;99.90;;;;;;4820762;29;20398;-80
2023/08/11 03:27:14;;;;;;;0.17;0.17;;;16.00;99.90;;;;;;4817712;29;20061;-80
2023/08/11 03:29:41;;;;;;;0.20;0.20;;;16.00;99.90;;;;;;4811831;29;20555;-81
2023/08/11 03:32:07;;;;;;;0.10;0.10;;;16.00;99.90;;;;;;4820442;29;20050;-80
2023/08/11 03:34:32;;;;;;;0.20;0.20;;;15.90;99.90;;;;;;4818441;29;20053;-81
2023/08/11 03:36:58;;;;;;;0.15;0.15;;;15.90;99.90;;;;;;4807689;29;20050;-80
2023/08/11 03:39:24;;;;;;;0.20;0.20;;;15.90;99.90;;;;;;4820559;29;20058;-80
2023/08/11 03:41:51;;;;;;;0.20;0.20;;;15.90;99.90;;;;;;4821353;29;20086;-81
2023/08/11 03:44:16;;;;;;;0.10;0.10;;;15.90;99.90;;;;;;4820382;29;20062;-80
2023/08/11 03:46:42;;;;;;;0.10;0.10;;;15.90;99.90;;;;;;4804987;29;20051;-80
2023/08/11 03:49:08;;;;;;;0.10;0.10;;;15.90;99.90;;;;;;4820359;29;20061;-80
2023/08/11 03:51:33;;;;;;;0.10;0.10;;;15.90;99.90;;;;;;4819015;29;20054;-80
2023/08/11 03:54:02;;;;;;;0.20;0.20;;;15.80;99.90;;;;;;4805688;29;20042;-81
2023/08/11 03:56:29;;;;;;;0.20;0.20;;;15.80;99.90;;;;;;4821730;29;20129;-80
2023/08/11 03:58:55;;;;;;;0.10;0.10;;;15.90;99.90;;;;;;4820340;29;20058;-80
2023/08/11 04:01:21;;;;;;;0.10;0.10;;;15.90;99.90;;;;;;4820864;29;20049;-80
2023/08/11 04:03:47;;;;;;;0.10;0.10;;;15.80;99.90;;;;;;4819393;29;20054;-80
2023/08/11 04:06:12;;;;;;;0.17;0.17;;;15.90;99.90;;;;;;4819673;29;20106;-80
2023/08/11 04:08:38;;;;;;;0.20;0.20;;;15.90;99.90;;;;;;4818464;29;20046;-80
2023/08/11 04:11:04;;;;;;;0.10;0.10;;;15.90;99.90;;;;;;4828564;29;20129;-80
2023/08/11 04:13:29;;;;;;;0.10;0.10;;;15.80;99.90;;;;;;4821248;29;20051;-80
2023/08/11 04:15:55;;;;;;;0.10;0.10;;;15.80;99.90;;;;;;4819992;29;20042;-80
2023/08/11 04:18:21;;;;;;;0.20;0.20;;;15.80;99.90;;;;;;4820688;29;20050;-80
2023/08/11 04:20:47;;;;;;;0.10;0.10;;;15.80;99.90;;;;;;4821176;29;20086;-80
2023/08/11 04:23:13;;;;;;;0.20;0.20;;;15.80;99.90;;;;;;4803628;29;20058;-80
2023/08/11 04:25:39;;;;;;;0.13;0.13;;;15.80;99.90;;;;;;4819676;29;20050;-80
2023/08/11 04:28:05;;;;;;;0.20;0.20;;;15.80;99.90;;;;;;4817218;29;20091;-80
2023/08/11 04:30:32;;;;;;;0.10;0.10;;;15.80;99.90;;;;;;4817628;29;20633;-81
2023/08/11 04:32:59;;;;;;;0.10;0.10;;;15.80;99.90;;;;;;4819465;29;20047;-79
2023/08/11 04:35:25;;;;;;;0.20;0.20;;;15.80;99.90;;;;;;4818831;29;20050;-80
2023/08/11 04:37:50;;;;;;;0.17;0.17;;;15.80;99.90;;;;;;4817974;29;20054;-81
2023/08/11 04:40:17;;;;;;;0.20;0.20;;;15.80;99.90;;;;;;4818601;29;20084;-79
2023/08/11 04:42:44;;;;;;;0.20;0.20;;;15.80;99.90;;;;;;4822472;29;20115;-80
2023/08/11 04:45:10;;;;;;;0.20;0.20;;;15.90;99.90;;;;;;4827219;29;20054;-80
2023/08/11 04:47:36;;;;;;;0.10;0.10;;;15.80;99.90;;;;;;4819389;29;20034;-80
2023/08/11 04:50:02;;;;;;;0.20;0.20;;;15.90;99.90;;;;;;4818535;29;20399;-81
2023/08/11 04:52:28;;;;;;;0.10;0.10;;;15.90;99.90;;;;;;4819061;29;20054;-80
2023/08/11 04:54:54;;;;;;;0.20;0.20;;;15.90;99.90;;;;;;4819458;29;20049;-79
2023/08/11 04:57:20;;;;;;;0.20;0.20;;;15.90;99.90;;;;;;4816704;29;20499;-80
2023/08/11 04:59:45;;;;;;;0.10;0.10;;;15.90;99.90;;;;;;4801654;29;20047;-80
2023/08/11 05:02:12;;;;;;;0.15;0.15;;;15.90;99.90;;;;;;4814993;29;20058;-80
2023/08/11 05:04:38;;;;;;;0.10;0.10;;;15.90;99.90;;;;;;4818959;29;20484;-80
2023/08/11 05:07:06;;;;;;;0.20;0.20;;;15.90;99.90;;;;;;4819595;29;20054;-81
2023/08/11 05:09:32;;;;;;;0.10;0.10;;;15.90;99.90;;;;;;4813194;29;20086;-80
2023/08/11 05:11:58;;;;;;;0.20;0.20;;;16.00;99.90;;;;;;4815802;29;20463;-81
2023/08/11 05:14:23;;;;;;;0.10;0.10;;;16.00;99.90;;;;;;4817363;29;20099;-80
2023/08/11 05:16:49;;;;;;;0.20;0.20;;;16.00;99.90;;;;;;4811382;29;20525;-80
2023/08/11 05:19:15;;;;;;;0.10;0.10;;;16.00;99.90;;;;;;4819382;29;20757;-80
2023/08/11 05:21:41;;;;;;;0.20;0.20;;;16.00;99.90;;;;;;4818675;29;20631;-80
2023/08/11 05:24:07;;;;;;;0.17;0.17;;;16.10;99.90;;;;;;4819491;29;20475;-79
2023/08/11 05:26:33;;;;;;;0.20;0.20;;;16.10;99.90;;;;;;4814443;29;20141;-79
2023/08/11 05:28:59;;;;;;;0.20;0.20;;;16.10;99.90;;;;;;4821391;29;20137;-79
2023/08/11 05:31:25;;;;;;;0.17;0.17;;;16.10;99.90;;;;;;4818121;29;20503;-80
2023/08/11 05:33:52;;;;;;;0.10;0.10;;;16.10;99.90;;;;;;4819249;29;20106;-80
2023/08/11 05:36:18;;;;;;;0.10;0.10;;;16.20;99.90;;;;;;4817230;29;20118;-80
2023/08/11 05:38:44;;;;;;;0.10;0.10;;;16.20;99.90;;;;;;4821752;29;20043;-79
2023/08/11 05:41:10;;;;;;;0.20;0.20;;;16.30;99.90;;;;;;4812250;29;20054;-80
2023/08/11 05:43:36;;;;;;;0.20;0.20;;;16.30;99.90;;;;;;4818834;29;20403;-81
2023/08/11 05:46:03;;;;;;;0.10;0.10;;;16.40;99.90;;;;;;4820048;29;20055;-80
2023/08/11 05:48:29;;;;;;;0.15;0.15;;;16.40;99.90;;;;;;4818274;29;20094;-79
2023/08/11 05:50:55;;;;;;;0.20;0.20;;;16.40;99.90;;;;;;4818628;29;20046;-80
2023/08/11 05:53:20;;;;;;;0.20;0.20;;;16.50;99.90;;;;;;4820408;29;20370;-80
2023/08/11 05:55:46;;;;;;;0.10;0.10;;;16.50;99.90;;;;;;4820240;29;20053;-79
2023/08/11 05:58:12;;;;;;;0.20;0.20;;;16.60;99.90;;;;;;4807775;29;20054;-79
2023/08/11 06:00:38;;;;;;;0.20;0.20;;;16.60;99.90;;;;;;4816746;29;20054;-81
2023/08/11 06:03:03;;;;;;;0.20;0.20;;;16.70;99.90;;;;;;4815676;29;20403;-81
2023/08/11 06:05:29;;;;;;;0.20;0.20;;;16.80;99.90;;;;;;4816982;29;20046;-81
2023/08/11 06:07:55;;;;;;;0.10;0.10;;;16.80;99.90;;;;;;4819342;29;20460;-82
2023/08/11 06:10:20;;;;;;;0.10;0.10;;;16.80;99.90;;;;;;4819488;29;20050;-81
2023/08/11 06:12:46;;;;;;;0.10;0.10;;;16.90;99.90;;;;;;4823163;29;20098;-81
2023/08/11 06:15:12;;;;;;;0.20;0.20;;;16.90;99.90;;;;;;4823387;29;20047;-81
2023/08/11 06:17:38;;;;;;;0.20;0.20;;;17.00;99.90;;;;;;4822897;29;20137;-81
2023/08/11 06:20:05;;;;;;;0.20;0.20;;;17.00;99.90;;;;;;4818690;29;20613;-81
2023/08/11 06:22:31;;;;;;;0.10;0.10;;;17.10;99.90;;;;;;4829724;29;20056;-80
2023/08/11 06:24:57;;;;;;;0.20;0.20;;;17.20;99.90;;;;;;4836272;29;20046;-80
2023/08/11 06:27:23;;;;;;;0.10;0.10;;;17.20;99.90;;;;;;4819703;29;20069;-81
2023/08/11 06:29:48;;;;;;;0.10;0.10;;;17.30;99.90;;;;;;4821889;29;20061;-78
2023/08/11 06:32:14;;;;;;;0.20;0.20;;;17.40;99.90;;;;;;4822723;29;20385;-79
2023/08/11 06:34:40;;;;;;;0.20;0.20;;;17.40;99.90;;;;;;4818704;29;20111;-81
2023/08/11 06:37:05;;;;;;;0.20;0.20;;;17.50;99.90;;;;;;4813322;29;20050;-78
2023/08/11 06:39:31;;;;;;;0.15;0.15;;;17.50;99.90;;;;;;4805631;29;20160;-79
2023/08/11 06:41:57;;;;;;;0.10;0.10;;;17.60;99.90;;;;;;4805774;29;20042;-80
2023/08/11 06:44:22;;;;;;;0.20;0.20;;;17.70;99.90;;;;;;4803725;29;20506;-80
2023/08/11 06:46:48;;;;;;;0.10;0.10;;;17.80;99.90;;;;;;4817183;29;20061;-79
2023/08/11 06:49:14;;;;;;;0.13;0.13;;;17.80;99.90;;;;;;4820849;29;20042;-79
2023/08/11 06:51:39;;;;;;;0.20;0.20;;;17.90;99.90;;;;;;4806799;29;20136;-79
2023/08/11 06:54:05;;;;;;;0.20;0.20;;;18.00;99.90;;;;;;4806569;29;20406;-79
2023/08/11 06:56:31;;;;;;;0.20;0.20;;;18.00;99.90;;;;;;4821527;29;20060;-81
2023/08/11 06:58:56;;;;;;;0.10;0.10;;;18.10;99.90;;;;;;4818607;29;20050;-80
2023/08/11 07:01:22;;;;;;;0.20;0.20;;;18.20;99.90;;;;;;4819820;29;20042;-79
2023/08/11 07:03:48;;;;;;;0.20;0.20;;;18.20;99.90;;;;;;4818494;29;20046;-79
2023/08/11 07:06:14;;;;;;;0.20;0.20;;;18.30;99.90;;;;;;4813094;29;20056;-80
2023/08/11 07:08:40;;;;;;;0.20;0.20;;;18.40;99.90;;;;;;4820104;29;20050;-80
2023/08/11 07:11:06;;;;;;;0.20;0.20;;;18.50;99.90;;;;;;4823846;29;20042;-80
2023/08/11 07:13:31;;;;;;;0.20;0.20;;;18.50;99.90;;;;;;4816914;29;20326;-79
2023/08/11 07:15:58;;;;;;;0.20;0.20;;;18.60;99.90;;;;;;4818240;29;20400;-78
2023/08/11 07:18:24;;;;;;;0.20;0.20;;;18.70;99.90;;;;;;4821023;29;20049;-78
2023/08/11 07:20:49;;;;;;;0.20;0.20;;;18.80;99.90;;;;;;4818269;29;20054;-78
2023/08/11 07:23:16;;;;;;;0.20;0.20;;;18.80;99.90;;;;;;4818801;29;20112;-78
2023/08/11 07:25:42;;;;;;;0.20;0.20;;;18.90;99.90;;;;;;4821436;29;20153;-79
2023/08/11 07:28:09;;;;;;;0.20;0.20;;;19.00;99.90;;;;;;4823386;29;20054;-79
2023/08/11 07:30:36;;;;;;;0.10;0.10;;;19.10;99.90;;;;;;4806707;29;20050;-78
2023/08/11 07:33:02;;;;;;;0.10;0.10;;;19.10;99.90;;;;;;4818244;29;20055;-78
2023/08/11 07:35:28;;;;;;;0.20;0.20;;;19.20;99.90;;;;;;4817129;29;20042;-80
2023/08/11 07:37:54;;;;;;;0.20;0.20;;;19.30;99.90;;;;;;4816031;29;20465;-80
2023/08/11 07:40:20;;;;;;;0.20;0.20;;;19.40;99.90;;;;;;4805107;29;20057;-80
2023/08/11 07:42:46;;;;;;;0.17;0.17;;;19.50;99.90;;;;;;4809658;29;20059;-80
2023/08/11 07:45:12;;;;;;;0.20;0.20;;;19.60;99.90;;;;;;4803331;29;20073;-79
2023/08/11 07:47:38;;;;;;;0.13;0.13;;;19.70;99.90;;;;;;4812327;29;20526;-78
2023/08/11 07:50:05;;;;;;;0.20;0.20;;;19.70;99.90;;;;;;4820898;29;20080;-80
2023/08/11 07:52:30;;;;;;;0.20;0.20;;;19.80;99.90;;;;;;4805886;29;20086;-79
2023/08/11 07:54:56;;;;;;;0.20;0.20;;;19.80;99.90;;;;;;4820330;29;20081;-81
2023/08/11 07:57:22;;;;;;;0.20;0.20;;;20.00;99.90;;;;;;4821130;29;20050;-80
2023/08/11 07:59:48;;;;;;;0.20;0.20;;;20.10;99.90;;;;;;4822347;29;20046;-80
2023/08/11 08:02:13;;;;;;;0.20;0.20;;;20.10;99.90;;;;;;4820798;29;20106;-80
2023/08/11 08:04:39;;;;;;;0.20;0.20;;;20.20;99.90;;;;;;4812984;29;20526;-80
2023/08/11 08:07:05;;;;;;;0.10;0.10;;;20.30;99.90;;;;;;4820185;29;20054;-80
2023/08/11 08:09:33;;;;;;;0.20;0.20;;;20.30;99.90;;;;;;4820827;29;20274;-79
2023/08/11 08:12:00;;;;;;;0.20;0.20;;;20.40;99.90;;;;;;4818541;29;20500;-80
2023/08/11 08:14:25;;;;;;;0.20;0.20;;;20.50;99.90;;;;;;4814813;29;20078;-80
2023/08/11 08:16:51;;;;;;;0.20;0.20;;;20.50;99.90;;;;;;4812265;29;20046;-80
2023/08/11 08:19:18;;;;;;;0.15;0.15;;;20.60;99.90;;;;;;4805997;29;20050;-80
2023/08/11 08:21:46;;;;;;;0.20;0.20;;;20.70;99.90;;;;;;4818352;29;20111;-81
2023/08/11 08:24:14;;;;;;;0.20;0.20;;;20.80;99.90;;;;;;4802020;29;20047;-80
2023/08/11 08:26:40;;;;;;;0.22;0.22;;;20.80;99.90;;;;;;4805102;29;20484;-81
2023/08/11 08:29:07;;;;;;;0.20;0.20;;;20.90;99.90;;;;;;4821094;29;20080;-80
2023/08/11 08:31:33;;;;;;;0.20;0.20;;;21.00;99.90;;;;;;4822545;29;20065;-80
2023/08/11 08:33:59;;;;;;;0.20;0.20;;;21.10;99.90;;;;;;4819928;29;20106;-80
2023/08/11 08:36:25;;;;;;;0.20;0.20;;;21.20;99.90;;;;;;4820079;29;20050;-80
2023/08/11 08:38:51;;;;;;;0.10;0.10;;;21.20;99.90;;;;;;4820328;29;20046;-80
2023/08/11 08:41:28;;;;;;;0.20;0.20;;;21.30;99.90;;;;;;4819175;29;20403;-81
2023/08/11 08:44:00;;;;;;;0.20;0.20;;;21.40;99.90;;;;;;4804687;29;20054;-80
2023/08/11 08:46:30;;;;;;;0.20;0.20;;;21.40;99.90;;;;;;4820574;29;20130;-80
2023/08/11 08:49:19;;;;;;;0.20;0.20;;;21.50;99.90;;;;;;4821011;29;20599;-81
2023/08/11 08:51:45;;;;;;;0.20;0.20;;;21.50;99.90;;;;;;4820804;29;20049;-80
2023/08/11 08:54:11;;;;;;;0.20;0.20;;;21.60;99.90;;;;;;4805564;29;20061;-81
2023/08/11 08:56:38;;;;;;;0.17;0.17;;;21.70;99.90;;;;;;4804783;29;20046;-80
2023/08/11 08:59:04;;;;;;;0.20;0.20;;;21.70;99.90;;;;;;4804615;29;20423;-79
2023/08/11 09:01:31;;;;;;;0.20;0.20;;;21.80;99.90;;;;;;4820736;29;20054;-80
2023/08/11 09:03:58;;;;;;;0.20;0.20;;;21.80;99.90;;;;;;4818850;29;20050;-81
2023/08/11 09:06:26;;;;;;;0.20;0.20;;;21.90;99.90;;;;;;4820089;29;20405;-80
2023/08/11 09:08:51;;;;;;;0.20;0.20;;;21.90;99.90;;;;;;4808581;29;20414;-81
2023/08/11 09:11:18;;;;;;;0.20;0.20;;;22.00;99.90;;;;;;4813697;29;20046;-80
2023/08/11 09:13:45;;;;;;;0.20;0.20;;;22.00;99.90;;;;;;4801790;29;20109;-81
2023/08/11 09:16:11;;;;;;;0.20;0.20;;;22.10;99.90;;;;;;4817581;29;20046;-80
2023/08/11 09:18:37;;;;;;;0.20;0.20;;;22.10;99.90;;;;;;4819882;29;20142;-81
2023/08/11 09:21:03;;;;;;;0.20;0.20;;;22.20;99.90;;;;;;4819305;29;20589;-80
2023/08/11 09:23:29;;;;;;;0.20;0.20;;;22.30;99.90;;;;;;4816085;29;20058;-81
2023/08/11 09:25:55;;;;;;;0.20;0.20;;;22.30;99.90;;;;;;4817792;29;20141;-80
2023/08/11 09:28:21;;;;;;;0.20;0.20;;;22.40;99.90;;;;;;4819810;29;20054;-80
2023/08/11 09:30:48;;;;;;;0.20;0.20;;;22.40;99.90;;;;;;4808476;29;20103;-80
2023/08/11 09:33:14;;;;;;;0.20;0.20;;;22.50;99.90;;;;;;4813201;29;20065;-81
2023/08/11 09:35:41;;;;;;;0.20;0.20;;;22.60;99.90;;;;;;4818195;29;20534;-81
2023/08/11 09:38:07;;;;;;;0.20;0.20;;;22.60;99.90;;;;;;4811032;29;20526;-80
2023/08/11 09:40:34;;;;;;;0.20;0.20;;;22.70;99.90;;;;;;4807569;29;20039;-80
2023/08/11 09:42:59;;;;;;;0.20;0.20;;;22.80;99.90;;;;;;4821502;29;20080;-80
2023/08/11 09:45:25;;;;;;;0.20;0.20;;;22.80;99.90;;;;;;4809312;29;20476;-81
2023/08/11 09:47:51;;;;;;;0.20;0.20;;;22.90;99.90;;;;;;4817364;29;20108;-80
2023/08/11 09:50:17;;;;;;;0.20;0.20;;;22.90;99.90;;;;;;4817719;29;20058;-80
2023/08/11 09:52:44;;;;;;;0.20;0.20;;;23.10;99.90;;;;;;4800763;29;20072;-80
2023/08/11 09:55:12;;;;;;;0.20;0.20;;;23.10;99.90;;;;;;4810964;29;20079;-80
2023/08/11 09:57:41;;;;;;;0.20;0.20;;;23.30;99.90;;;;;;4803237;29;20054;-79
2023/08/11 10:00:11;;;;;;;0.20;0.20;;;23.30;99.90;;;;;;4807197;29;21342;-80
2023/08/11 10:02:40;;;;;;;0.20;0.20;;;23.40;99.90;;;;;;4794507;29;20050;-80
2023/08/11 10:05:08;;;;;;;0.20;0.20;;;23.50;99.90;;;;;;4809971;29;20054;-80
2023/08/11 10:07:39;;;;;;;0.20;0.20;;;23.60;99.90;;;;;;4809045;29;20369;-80
2023/08/11 10:10:12;;;;;;;0.20;0.20;;;23.60;99.90;;;;;;4811455;29;20052;-80
2023/08/11 10:12:42;;;;;;;0.20;0.20;;;23.70;99.90;;;;;;4809936;29;20050;-79
2023/08/11 10:15:13;;;;;;;0.20;0.20;;;23.80;99.90;;;;;;4808635;29;20045;-80
2023/08/11 10:17:39;;;;;;;0.30;0.30;;;23.80;99.90;;;;;;4793626;29;20046;-79
2023/08/11 10:20:07;;;;;;;0.20;0.20;;;23.90;99.90;;;;;;4810187;29;20452;-80
2023/08/11 10:22:33;;;;;;;0.20;0.20;;;24.00;99.90;;;;;;4807415;29;20077;-80
2023/08/11 10:25:01;;;;;;;0.20;0.20;;;24.20;99.90;;;;;;4811044;29;20133;-80
2023/08/11 10:27:28;;;;;;;0.20;0.20;;;24.30;99.90;;;;;;4809494;29;20050;-80
2023/08/11 10:29:56;;;;;;;0.20;0.20;;;24.40;99.90;;;;;;4809391;29;20117;-80
2023/08/11 10:32:31;;;;;;;0.25;0.25;;;24.50;99.90;;;;;;4809726;29;20357;-80
2023/08/11 10:34:57;;;;;;;0.20;0.20;;;24.60;99.90;;;;;;4809146;29;20050;-80
2023/08/11 10:37:31;;;;;;;0.20;0.20;;;24.70;99.90;;;;;;4793487;29;20525;-81
2023/08/11 10:40:04;;;;;;;0.20;0.20;;;24.70;99.90;;;;;;4808846;29;20372;-80
2023/08/11 10:42:31;;;;;;;0.20;0.20;;;24.80;99.90;;;;;;4814335;29;20200;-80
2023/08/11 10:45:11;;;;;;;0.20;0.20;;;24.80;99.90;;;;;;4812775;29;20107;-79
2023/08/11 10:47:38;;;;;;;0.23;0.23;;;24.90;99.90;;;;;;4814280;29;20081;-80
2023/08/11 10:50:08;;;;;;;0.20;0.20;;;24.90;99.90;;;;;;4813744;29;20045;-80
2023/08/11 10:52:34;;;;;;;0.20;0.20;;;24.90;99.90;;;;;;4812487;29;20049;-80
2023/08/11 10:55:02;;;;;;;0.15;0.15;;;24.90;99.90;;;;;;4812235;29;20091;-80
2023/08/11 10:57:30;;;;;;;0.20;0.20;;;25.00;99.90;;;;;;4813295;29;20054;-80
2023/08/11 10:59:56;;;;;;;0.20;0.20;;;25.10;99.90;;;;;;4810500;29;20050;-80
2023/08/11 11:02:22;;;;;;;0.20;0.20;;;25.10;99.90;;;;;;4819550;29;20483;-81
2023/08/11 11:04:51;;;;;;;0.20;0.20;;;25.20;99.90;;;;;;4823037;29;20122;-80
2023/08/11 11:07:16;;;;;;;0.20;0.20;;;25.30;99.90;;;;;;4815273;29;20054;-80
2023/08/11 11:09:42;;;;;;;0.20;0.20;;;25.30;99.90;;;;;;4812485;29;20053;-80
2023/08/11 11:12:08;;;;;;;0.20;0.20;;;25.40;99.90;;;;;;4798816;29;20054;-80
2023/08/11 11:14:36;;;;;;;0.10;0.10;;;25.50;99.90;;;;;;4816917;29;21103;-80
2023/08/11 11:17:03;;;;;;;0.20;0.20;;;25.60;99.90;;;;;;4815803;29;20296;-79
2023/08/11 11:19:31;;;;;;;0.20;0.20;;;25.70;99.90;;;;;;4811987;29;20082;-81
2023/08/11 11:21:56;;;;;;;0.20;0.20;;;25.80;99.90;;;;;;4796849;29;20062;-80
2023/08/11 11:24:22;;;;;;;0.20;0.20;;;25.80;99.90;;;;;;4811209;29;20043;-80
2023/08/11 11:26:48;;;;;;;0.20;0.20;;;26.00;99.90;;;;;;4815343;29;20035;-81
2023/08/11 11:29:14;;;;;;;0.20;0.20;;;26.10;99.90;;;;;;4794730;29;20051;-80
2023/08/11 11:31:40;;;;;;;0.20;0.20;;;26.20;99.90;;;;;;4816390;29;20551;-81
2023/08/11 11:34:06;;;;;;;0.20;0.20;;;26.20;99.90;;;;;;4821362;29;20117;-82
2023/08/11 11:36:33;;;;;;;0.20;0.20;;;26.30;99.90;;;;;;4809055;29;20548;-81
2023/08/11 11:38:59;;;;;;;0.20;0.20;;;26.20;99.90;;;;;;4819322;29;20495;-80
2023/08/11 11:41:25;;;;;;;0.20;0.20;;;26.20;99.90;;;;;;4819300;29;20133;-80
2023/08/11 11:43:51;;;;;;;0.20;0.20;;;26.20;99.90;;;;;;4813262;29;20050;-80
2023/08/11 11:46:18;;;;;;;0.20;0.20;;;26.30;99.90;;;;;;4814950;29;20054;-80
2023/08/11 11:48:52;;;;;;;0.20;0.20;;;26.50;99.90;;;;;;4816304;29;20066;-79
2023/08/11 11:51:20;;;;;;;0.20;0.20;;;26.60;99.90;;;;;;4810056;29;20070;-79
2023/08/11 11:53:51;;;;;;;0.20;0.20;;;26.60;99.90;;;;;;4802071;29;20450;-80
2023/08/11 11:56:17;;;;;;;0.10;0.10;;;26.60;99.90;;;;;;4821395;29;20121;-79
2023/08/11 11:58:46;;;;;;;0.20;0.20;;;26.70;99.90;;;;;;4808239;29;20086;-79
2023/08/11 12:01:13;;;;;;;0.20;0.20;;;26.80;99.90;;;;;;4811883;29;20058;-79
2023/08/11 12:03:39;;;;;;;0.20;0.20;;;26.90;99.90;;;;;;4806410;29;20058;-80
2023/08/11 12:06:08;;;;;;;0.20;0.20;;;27.00;99.90;;;;;;4813003;29;20081;-80
2023/08/11 12:08:35;;;;;;;0.20;0.20;;;27.00;99.90;;;;;;4810743;29;20067;-79
2023/08/11 12:11:01;;;;;;;0.20;0.20;;;27.10;99.90;;;;;;4811299;29;20050;-80
2023/08/11 12:13:30;;;;;;;0.20;0.20;;;27.20;99.90;;;;;;4817739;29;20054;-79
2023/08/11 12:15:56;;;;;;;0.20;0.20;;;27.30;99.90;;;;;;4806406;29;20047;-80
2023/08/11 12:18:22;;;;;;;0.20;0.20;;;27.40;99.90;;;;;;4798372;29;20141;-81
2023/08/11 12:20:48;;;;;;;0.20;0.20;;;27.50;99.90;;;;;;4814966;29;20138;-81
2023/08/11 12:23:14;;;;;;;0.20;0.20;;;27.60;99.90;;;;;;4813496;29;20385;-81
2023/08/11 12:25:39;;;;;;;0.20;0.20;;;27.60;99.90;;;;;;4815935;29;20045;-80
2023/08/11 12:28:05;;;;;;;0.30;0.30;;;27.70;99.90;;;;;;4815740;29;20038;-80
2023/08/11 12:30:31;;;;;;;0.20;0.20;;;27.90;99.90;;;;;;4814360;29;20041;-81
2023/08/11 12:32:56;;;;;;;0.20;0.20;;;27.90;99.90;;;;;;4816871;29;20563;-80
2023/08/11 12:35:22;;;;;;;0.20;0.20;;;28.00;99.90;;;;;;4804485;29;20411;-82
2023/08/11 12:37:48;;;;;;;0.20;0.20;;;28.00;99.90;;;;;;4820069;29;20537;-82
2023/08/11 12:40:14;;;;;;;0.20;0.20;;;28.00;99.90;;;;;;4818404;29;20053;-81
2023/08/11 12:42:40;;;;;;;0.20;0.20;;;28.10;99.90;;;;;;4812927;29;20552;-81
2023/08/11 12:45:10;;;;;;;0.20;0.20;;;28.20;99.90;;;;;;4820299;29;20110;-81